CYXH

Details ICAO CYXH (YXH)
Name MEDICINE HAT
Region Canada
Timezone America/Edmonton (UTC-7.0)
Plans Departing 7
Arriving 4
Stats Elevation 2,352 ft / 717 m (AMSL)
Location 50.017369° -110.719814°
Runways 2
Magnetic Variation 12.389° E
Sunrise 2017-12-17 15:18:03 UTC / 2017-12-17 08:18:03 Local
Sunset 2017-12-17 23:22:58 UTC / 2017-12-17 16:22:58 Local
Advertisement - Login to hide

Runways

ID Width Length Bearing (true) Bearing (mag) Surface Threshold Offset Overrun Length
03 150 ft / 46 m 4,992 ft / 1,522 m 44.52° 32.13° Asphalt 0 ft / 0 m 0 ft / 0 m
09 100 ft / 30 m 2,791 ft / 851 m 106.89° 94.50° Asphalt 0 ft / 0 m 0 ft / 0 m
21 150 ft / 46 m 4,992 ft / 1,522 m 224.53° 212.14° Asphalt 0 ft / 0 m 0 ft / 0 m
27 100 ft / 30 m 2,791 ft / 851 m 286.90° 274.51° Asphalt 0 ft / 0 m 0 ft / 0 m

Map

Weather


0- 5 10 15 20 25 30 35+ Temperature / ° C

Clouds and Precipitation
Forecast for 2017-12-17 18:00 UTC. Updated 42 minutes ago

Ground ~20,000 ft ~40,000 ft Winds

METAR

Not found

TAF

TAF CYXH 171139Z 1712/1724 22012KT P6SM SCT080 BKN200 BECMG 1717/1719 25012G22KT RMK FCST BASED ON AUTO OBS. NXT FCST BY 171800Z

Frequencies

Recorded 124.87 MHz AWOS
Tower 122.20 MHz MF
Warning: Do not use this data for real-world aviation or navigation. No guarantee of current accuracy is given.